Date,TemperatureHighF,TemperatureAvgF,TemperatureLowF,DewpointHighF,DewpointAvgF,DewpointLowF,HumidityHigh,HumidityAvg,HumidityLow,PressureMaxIn,PressureMinIn,WindSpeedMaxMPH,WindSpeedAvgMPH,GustSpeedMaxMPH,PrecipitationSumIn
2012-1-1,47.3,38.3,30.6,39.3,30.0,17.0,98,73,51,29.94,29.53,27,5,37,0.00
2012-1-2,31.1,27.3,21.4,25.0,15.0,6.4,83,60,46,30.12,29.83,17,5,30,0.00
2012-1-3,27.9,21.1,15.4,10.9,4.9,0.6,63,49,34,30.27,30.12,18,5,28,0.00
2012-1-4,36.0,27.9,20.3,18.2,12.0,4.8,57,51,41,30.15,29.83,9,2,13,0.00
2012-1-5,41.5,35.9,27.5,29.4,24.3,18.1,79,63,42,29.94,29.71,8,1,12,0.00
2012-1-6,54.0,42.7,36.9,33.6,30.4,28.1,79,63,40,29.71,29.65,11,2,15,0.00
2012-1-7,48.9,39.3,33.8,33.3,26.1,19.3,86,61,37,30.15,29.65,14,2,22,0.00
2012-1-8,41.2,31.5,23.7,22.9,18.5,13.6,84,60,36,30.33,30.15,7,0,11,0.00
2012-1-9,42.8,32.9,24.4,25.2,20.9,17.7,87,63,39,30.24,29.91,9,1,15,0.00
2012-1-10,48.7,35.3,27.3,32.8,26.7,22.8,98,74,41,30.00,29.85,6,0,9,0.00
2012-1-11,45.3,34.8,26.1,38.0,30.2,25.1,98,85,48,29.85,29.44,9,2,15,0.16
2012-1-12,39.7,35.9,20.5,39.2,34.1,10.2,98,93,64,29.44,29.29,9,0,12,0.20
2012-1-13,26.4,22.7,19.0,23.5,16.7,9.2,97,78,63,29.91,29.38,0,0,0,0.00
2012-1-14,24.6,22.5,19.8,18.7,14.9,10.5,82,73,56,30.21,29.91,0,0,0,0.00
2012-1-15,31.5,20.7,15.1,14.6,6.7,-4.7,78,55,37,30.42,30.21,0,0,0,0.00
2012-1-16,44.8,32.9,17.6,43.9,24.4,8.0,98,72,42,30.27,29.77,10,1,14,0.16
2012-1-17,53.8,42.6,27.9,51.1,37.9,11.4,98,84,49,29.97,29.35,21,4,38,0.67
2012-1-18,28.8,24.4,21.0,12.1,7.3,4.0,60,48,37,30.24,29.97,14,4,26,0.00
2012-1-19,29.7,20.6,5.0,24.7,7.5,-10.4,83,57,40,30.12,29.74,18,4,26,0.00
2012-1-20,19.8,10.9,1.0,10.6,-2.8,-14.1,80,55,36,30.27,30.03,8,1,14,0.00
2012-1-21,36.3,18.6,9.7,10.9,5.4,0.3,80,58,31,30.24,30.00,10,2,15,0.00
2012-1-22,34.5,25.6,12.9,34.0,20.6,3.4,98,82,64,30.21,29.80,9,2,13,0.04
2012-1-23,52.2,41.0,32.2,49.2,36.9,19.5,98,86,59,29.83,29.44,14,4,31,2.28
2012-1-24,33.4,32.0,30.7,23.0,21.0,18.2,69,64,58,30.30,29.83,16,3,22,0.00
2012-1-25,32.5,30.1,28.9,24.4,20.2,18.0,81,66,56,30.33,30.12,6,0,10,0.00
2012-1-26,34.9,32.6,29.5,34.4,30.5,24.4,98,92,81,30.15,29.50,9,2,22,0.28
2012-1-27,41.2,34.4,31.1,33.4,29.0,21.3,98,82,48,29.94,29.47,12,2,22,0.16
2012-1-28,37.4,32.2,27.0,33.5,23.1,10.3,98,72,37,30.06,29.74,19,3,34,0.08
2012-1-29,35.2,28.6,21.2,29.4,18.0,10.4,88,64,50,30.18,29.85,19,2,32,0.00
2012-1-30,40.3,29.2,21.2,30.7,18.2,12.0,85,63,50,30.21,29.88,10,2,15,0.00
2012-1-31,57.7,46.9,37.6,46.0,33.4,26.9,92,60,38,29.91,29.80,10,3,13,0.00
2012-2-1,49.5,44.1,37.9,48.4,35.8,28.8,98,74,51,30.09,29.80,11,2,15,0.00
2012-2-2,42.1,36.2,27.5,32.4,27.7,23.7,93,72,51,30.36,30.06,9,1,12,0.00
2012-2-3,42.6,33.0,23.7,36.7,27.9,23.2,98,82,63,30.45,30.36,10,1,13,0.00
2012-2-4,44.2,34.4,26.6,26.8,24.8,22.1,90,69,44,30.36,30.12,5,0,7,0.00
2012-2-5,47.5,32.8,22.1,34.4,24.8,21.6,98,76,39,30.21,30.09,9,1,12,0.00
2012-2-6,48.2,35.4,26.2,30.3,26.6,22.8,98,73,40,30.15,30.00,11,1,16,0.00
2012-2-7,37.2,32.7,26.8,29.8,24.2,14.0,86,71,55,30.33,30.09,12,2,16,0.00
2012-2-8,39.4,29.4,22.5,14.8,12.0,5.9,69,50,30,30.30,30.18,7,2,16,0.00
2012-2-9,39.4,29.0,21.4,20.1,16.8,13.8,87,62,38,30.21,30.09,10,2,24,0.00
2012-2-10,32.9,29.5,21.7,30.8,21.7,16.2,98,73,62,30.09,29.80,18,3,26,0.00
2012-2-11,24.6,17.0,10.4,15.8,4.2,-3.2,80,59,32,30.18,29.85,17,7,26,0.00
2012-2-12,36.9,24.4,17.6,13.4,9.7,4.8,80,55,34,30.15,30.09,14,2,19,0.00
2012-2-13,38.1,27.8,19.4,16.4,11.3,8.5,66,51,32,30.12,29.94,8,1,12,0.00
2012-2-14,35.8,32.1,28.6,30.4,23.9,12.1,98,73,46,30.03,29.83,6,0,11,0.08
2012-2-15,43.3,35.4,31.5,35.1,27.5,23.7,98,74,49,30.18,30.00,7,2,12,0.08
2012-2-16,44.2,37.8,30.0,42.5,34.6,26.2,98,89,65,30.06,29.88,12,1,16,0.08
2012-2-17,47.5,37.4,29.5,28.8,22.8,15.3,91,59,31,30.09,29.94,9,2,18,0.00
2012-2-18,41.2,34.3,24.1,28.9,19.0,11.3,79,55,34,30.18,29.91,21,4,32,0.04
2012-2-19,36.5,27.5,19.4,15.9,12.6,10.9,77,54,36,30.18,30.09,9,2,13,0.00
2012-2-20,37.8,26.9,16.9,26.6,16.9,12.7,96,68,40,30.36,30.09,8,1,12,0.00
2012-2-21,42.4,35.4,27.3,40.3,31.2,21.5,98,85,63,30.09,29.62,8,2,15,0.12
2012-2-22,39.9,36.0,33.1,36.2,32.6,28.0,98,88,68,29.68,29.41,7,1,12,0.12
2012-2-23,45.1,36.7,30.2,36.5,30.7,24.0,98,81,48,29.62,29.44,7,1,12,0.00
2012-2-24,37.2,33.5,31.5,36.5,31.0,23.5,98,91,69,29.74,29.26,16,2,24,0.35
2012-2-25,33.4,29.1,26.4,29.5,21.5,13.7,98,74,44,30.30,29.74,13,2,18,2.84
2012-2-26,40.3,31.6,15.3,27.1,16.8,13.3,94,56,39,30.36,30.09,10,4,10,0.04
2012-2-27,46.6,37.3,32.2,23.6,19.5,15.1,61,49,31,30.45,30.03,13,2,13,0.04
2012-2-28,42.6,33.0,22.1,28.1,20.6,17.5,92,62,40,30.47,30.09,8,2,8,0.00
2012-2-29,47.7,38.8,33.6,45.1,36.1,23.4,98,90,64,30.09,29.47,15,3,15,0.63
2012-3-1,45.1,38.0,35.1,38.4,32.1,27.8,97,80,56,29.85,29.53,15,1,15,0.00
2012-3-2,50.4,38.9,33.4,49.8,34.0,28.3,98,83,58,29.85,29.18,17,3,17,0.55
2012-3-3,37.6,34.1,29.3,29.5,22.5,16.7,80,62,50,29.74,29.29,19,4,19,0.00
2012-3-4,39.7,31.9,27.0,24.3,20.1,15.7,82,63,39,29.85,29.71,13,2,13,0.00
2012-3-5,35.2,27.7,23.9,24.2,14.7,6.6,86,60,34,30.36,29.85,15,2,15,0.00
2012-3-6,59.4,42.7,26.8,29.0,21.6,13.6,68,45,27,30.36,30.03,17,5,17,0.00
2012-3-7,68.7,59.7,48.4,39.3,31.1,20.1,45,34,26,30.12,29.91,17,6,17,0.00
2012-3-8,61.2,47.3,29.1,54.1,35.9,16.7,94,66,43,30.12,29.77,21,5,21,0.16
2012-3-9,41.2,33.0,25.2,28.2,15.2,5.8,86,50,30,30.47,30.09,19,4,20,0.16
2012-3-10,50.5,35.4,20.3,20.9,12.6,4.2,57,40,27,30.53,30.24,14,3,14,0.00
2012-3-11,67.6,49.9,34.3,29.1,23.3,19.7,58,38,20,30.33,30.15,11,1,11,0.00
2012-3-12,61.9,52.0,44.2,57.7,42.6,27.3,98,73,38,30.18,29.77,17,3,17,0.35
2012-3-13,67.6,58.0,49.3,56.5,43.9,22.1,98,67,20,30.00,29.83,15,2,15,0.08
2012-3-14,78.8,65.4,36.5,46.1,37.7,24.5,76,39,22,30.12,30.00,10,3,10,0.00
2012-3-15,78.1,65.9,58.3,63.2,52.9,45.7,93,64,44,30.03,29.94,12,3,15,0.51
2012-3-16,74.7,63.2,55.8,59.0,55.6,53.3,97,78,48,30.12,30.00,9,1,9,0.00
2012-3-17,77.9,60.9,47.1,58.2,51.6,46.6,98,76,38,30.18,30.09,8,1,10,0.00
2012-3-18,72.7,60.1,48.7,61.5,54.0,48.2,98,83,52,30.12,30.03,7,0,7,0.04
2012-3-19,76.6,60.0,50.9,58.5,53.7,50.4,98,82,49,30.12,30.03,9,2,10,0.00
2012-3-20,84.0,65.6,49.6,56.2,51.4,46.2,98,66,28,30.15,30.06,6,1,7,0.00
2012-3-21,84.7,64.9,50.7,54.7,49.6,42.3,91,63,23,30.21,30.09,10,1,10,0.00
2012-3-22,86.7,65.7,50.0,55.3,49.1,42.9,96,60,22,30.15,30.06,10,1,10,0.00
2012-3-23,70.7,59.0,51.6,52.3,48.2,44.1,92,69,42,30.12,29.88,8,2,11,0.20
2012-3-24,63.3,54.6,48.9,55.0,51.7,47.7,98,91,68,29.88,29.77,11,1,11,0.28
2012-3-25,73.4,58.5,48.2,52.7,45.1,22.5,98,67,29,30.03,29.83,15,3,15,0.00
2012-3-26,53.8,42.1,32.2,26.6,18.6,11.4,62,40,27,30.36,30.03,15,4,17,0.00
2012-3-27,54.9,41.1,26.8,31.7,19.3,9.3,66,43,26,30.36,29.85,10,3,12,0.00
2012-3-28,70.3,58.7,48.2,48.0,34.6,23.4,69,42,24,29.97,29.71,24,5,24,0.00
2012-3-29,48.4,42.8,36.0,27.2,25.0,22.8,67,49,40,30.15,29.97,13,3,17,0.00
2012-3-30,43.9,37.7,32.5,37.9,30.9,24.5,98,77,54,30.12,29.74,13,3,20,0.24
2012-3-31,45.0,39.7,35.6,35.7,30.4,26.5,93,70,50,29.97,29.85,8,1,8,0.00
2012-4-1,57.0,45.9,35.6,43.0,36.3,28.8,91,70,53,29.91,29.68,9,1,11,0.00
2012-4-2,54.7,43.6,33.8,35.3,29.4,22.0,89,60,37,30.03,29.83,9,2,11,0.00
2012-4-3,66.2,48.5,35.6,44.8,37.8,27.5,97,68,43,30.00,29.80,13,1,13,0.24
2012-4-4,64.9,52.4,39.4,45.7,31.0,18.7,93,50,20,29.94,29.85,13,2,18,0.00
2012-4-5,52.0,42.1,34.5,27.0,22.6,18.5,71,47,29,30.09,29.91,10,2,13,0.00
2012-4-6,62.1,44.7,28.6,26.4,20.7,17.4,69,41,21,30.27,30.09,11,2,13,0.00
2012-4-7,67.3,48.6,29.3,37.8,25.6,18.0,96,49,17,30.30,30.12,9,1,10,0.00
2012-4-8,64.2,53.5,45.7,41.5,26.4,15.3,78,38,18,30.12,30.03,20,4,26,0.00
2012-4-9,64.0,50.0,36.0,36.2,25.2,12.8,87,44,19,30.06,29.80,26,3,26,0.00
2012-4-10,47.1,39.8,34.3,26.8,20.0,14.7,59,45,32,30.00,29.83,17,3,17,0.00
2012-4-11,54.1,42.9,34.0,27.7,22.4,17.7,72,46,28,30.18,29.97,14,4,16,0.00
2012-4-12,62.4,45.5,28.9,35.8,24.9,19.4,94,50,24,30.24,30.12,11,1,11,0.00
2012-4-13,66.6,49.1,31.3,44.1,29.4,23.1,96,54,20,30.24,30.12,7,1,10,0.00
2012-4-14,61.0,52.9,43.5,55.4,44.4,30.1,93,73,50,30.12,29.88,11,1,11,0.08
2012-4-15,81.3,66.5,57.0,59.7,53.0,45.2,98,68,29,29.91,29.77,10,2,13,0.00
2012-4-16,72.0,63.7,47.1,58.0,43.4,28.6,75,49,32,30.12,29.68,17,4,22,0.00
2012-4-17,61.7,49.9,35.6,37.7,29.3,24.8,79,48,26,30.36,30.12,13,2,13,0.00
2012-4-18,63.0,49.2,35.4,42.3,32.3,27.0,82,55,27,30.30,30.00,8,2,10,0.00
2012-4-19,77.4,62.0,46.6,43.2,37.5,28.5,80,42,22,30.00,29.85,9,1,10,0.00
2012-4-20,77.0,59.0,40.3,52.1,41.2,35.6,93,57,24,29.88,29.65,15,3,15,0.31
2012-4-21,55.2,44.5,38.3,38.2,29.7,22.1,95,60,31,30.00,29.85,13,4,13,0.04
2012-4-22,54.0,43.9,34.9,28.0,21.8,16.2,74,44,27,30.00,29.88,13,4,15,0.00
2012-4-23,59.4,48.2,36.9,20.7,15.9,8.1,50,29,19,29.91,29.62,25,8,28,0.00
2012-4-24,64.2,50.7,37.0,23.5,16.8,9.4,38,26,18,29.71,29.53,22,5,22,0.00
2012-4-25,64.9,52.4,36.3,47.5,29.7,22.0,83,46,24,29.83,29.71,8,1,8,0.00
2012-4-26,59.5,52.6,41.9,50.6,44.7,18.2,94,76,36,30.00,29.62,17,2,17,0.04
2012-4-27,57.6,44.7,30.2,19.9,17.7,14.6,61,36,22,30.21,30.03,8,3,13,0.00
2012-4-28,45.3,41.8,37.2,35.8,26.8,17.1,80,56,39,30.24,30.12,5,1,10,0.16
2012-4-29,61.3,45.8,28.6,30.5,22.5,15.6,78,45,22,30.30,30.21,9,2,11,0.00
2012-4-30,60.3,50.8,43.3,52.3,37.6,21.9,97,63,38,30.18,29.88,6,2,8,0.63
2012-5-1,65.7,55.8,51.1,53.6,48.1,42.2,98,78,47,30.06,29.88,6,2,9,0.04
2012-5-2,82.4,65.7,51.4,61.5,53.6,48.2,95,69,40,29.97,29.83,4,0,13,0.04
2012-5-3,88.2,75.6,61.5,62.3,53.6,45.3,94,52,23,30.00,29.85,8,2,15,0.00
2012-5-4,74.5,68.4,61.9,62.4,57.4,50.6,84,69,54,30.00,29.91,6,0,8,0.04
2012-5-5,66.2,60.6,55.0,52.5,46.3,41.0,75,60,46,30.09,29.94,5,1,10,0.00
2012-5-6,70.0,58.0,48.0,42.3,33.1,23.6,72,43,22,30.12,30.00,5,1,10,0.00
2012-5-7,64.8,57.2,50.0,56.5,47.0,24.0,96,72,27,30.03,29.80,4,1,8,0.83
2012-5-8,71.2,63.2,56.1,57.4,46.5,33.9,93,59,32,29.85,29.77,10,2,10,0.04
2012-5-9,64.2,56.3,48.7,46.9,38.3,34.5,72,52,34,29.85,29.77,7,2,15,0.08
2012-5-10,64.4,54.0,41.2,41.0,30.1,23.3,76,44,23,30.00,29.85,8,2,14,0.00
2012-5-11,74.5,58.7,42.1,33.3,30.5,26.5,69,38,19,30.15,30.00,5,1,10,0.00
2012-5-12,77.2,64.9,54.1,49.2,36.8,29.3,60,36,21,30.21,30.15,9,1,11,0.00
2012-5-13,70.5,61.8,55.2,53.8,41.9,32.7,83,51,34,30.21,30.09,5,1,8,0.00
2012-5-14,74.3,62.3,48.4,52.0,38.5,25.3,85,47,21,30.12,30.00,3,0,8,0.00
2012-5-15,82.4,66.0,46.4,43.7,35.7,31.7,76,38,16,30.03,29.85,6,1,13,0.00
2012-5-16,68.2,61.6,52.0,46.2,31.3,24.9,60,34,22,30.12,29.88,12,3,18,0.00
2012-5-17,68.2,56.1,41.0,40.3,33.0,27.5,78,46,22,30.21,30.12,5,1,9,0.00
2012-5-18,74.8,60.2,43.2,48.0,34.3,26.2,83,44,18,30.15,30.06,4,0,9,0.00
2012-5-19,85.6,67.5,48.0,50.9,39.6,34.7,78,42,18,30.15,30.09,6,0,8,0.00
2012-5-20,88.3,72.8,54.5,55.7,42.9,38.1,76,39,18,30.15,30.03,6,1,10,0.00
2012-5-21,81.9,68.8,60.4,53.2,48.8,46.2,74,51,30,30.03,29.97,12,2,15,0.00
2012-5-22,71.4,63.4,54.1,53.7,43.0,39.2,76,50,31,30.00,29.91,8,2,11,0.00
2012-5-23,77.2,64.9,49.6,52.7,43.9,38.3,83,51,27,29.97,29.88,5,1,10,0.00
2012-5-24,84.4,72.4,58.1,58.4,50.7,47.2,85,50,29,29.94,29.80,5,1,13,0.00
2012-5-25,90.3,79.3,69.8,51.9,45.1,33.2,43,32,18,30.09,29.85,5,2,15,0.00
2012-5-26,74.5,67.5,61.7,49.4,44.2,38.9,64,43,33,30.27,30.12,6,1,10,0.04
2012-5-27,84.7,72.3,62.2,55.8,50.9,46.2,72,49,30,30.15,29.97,8,2,13,0.00
2012-5-28,95.5,80.9,63.7,66.2,51.2,41.5,87,44,17,29.94,29.77,4,1,11,0.00
2012-5-29,82.0,76.5,68.7,65.8,47.0,31.4,85,39,18,29.83,29.74,4,1,13,0.35
2012-5-30,74.7,66.7,53.4,41.7,35.3,31.6,59,33,21,29.91,29.83,8,2,14,0.00
2012-5-31,65.3,57.9,50.7,43.1,39.1,33.8,75,51,35,30.00,29.88,4,1,12,0.12
2012-6-1,58.8,54.6,49.8,57.1,50.1,41.8,94,85,68,29.85,29.56,6,2,13,0.43
2012-6-2,72.9,60.2,48.0,41.0,35.6,27.9,71,44,21,29.74,29.68,9,2,16,0.00
2012-6-3,79.2,68.4,57.9,47.9,37.9,30.7,67,36,20,29.80,29.74,7,2,18,0.00
2012-6-4,73.0,64.4,53.1,49.1,40.2,34.9,75,44,26,29.91,29.77,4,1,13,0.00
2012-6-5,67.8,60.4,52.5,51.1,40.0,32.0,82,49,27,30.00,29.91,6,1,10,0.00
2012-6-6,76.1,63.7,47.3,53.3,39.1,32.5,85,48,21,30.06,30.00,5,0,10,0.00
2012-6-7,82.9,68.2,51.4,47.8,40.0,33.5,78,42,19,30.09,30.03,6,2,13,0.00
2012-6-8,85.6,72.1,54.9,42.6,37.9,31.9,60,33,16,30.06,29.94,3,0,10,0.00
2012-6-9,89.8,75.9,60.6,42.0,39.3,36.5,46,29,17,29.97,29.91,8,1,12,0.00
2012-6-10,89.6,76.9,61.7,47.5,41.3,37.8,52,30,18,30.06,29.94,4,0,8,0.00
2012-6-11,78.4,71.3,66.4,64.1,57.8,50.7,78,63,48,30.00,29.88,3,0,8,0.12
2012-6-12,80.6,74.2,65.7,64.8,46.9,32.0,84,44,19,30.06,29.83,10,3,14,0.00
2012-6-13,74.3,63.0,50.2,41.6,35.1,29.1,59,37,21,30.21,30.09,5,1,9,0.00
2012-6-14,77.9,64.2,48.7,45.5,39.4,31.9,69,42,23,30.24,30.15,8,2,10,0.00
2012-6-15,85.3,72.1,55.8,57.6,45.8,37.0,81,46,18,30.18,30.12,5,1,8,0.00
2012-6-16,87.4,75.1,62.6,59.0,52.2,43.9,80,49,23,30.18,29.97,5,1,10,0.00
2012-6-17,81.1,75.2,68.2,64.1,55.6,46.0,73,52,35,29.94,29.83,4,0,9,0.12
2012-6-18,85.5,70.7,56.8,63.8,53.9,45.9,79,57,34,29.97,29.83,5,2,17,0.39
2012-6-19,93.0,82.9,73.2,54.9,52.5,48.9,48,36,23,30.03,29.88,5,1,11,0.00
2012-6-20,92.3,82.9,70.3,55.1,47.9,40.5,56,32,17,30.12,29.94,6,1,13,0.00
2012-6-21,92.8,79.5,70.7,60.0,51.0,45.4,57,39,20,30.00,29.85,9,2,18,0.28
2012-6-22,82.2,73.0,61.5,63.3,48.0,35.9,87,48,20,29.97,29.91,6,1,11,0.00
2012-6-23,81.1,71.1,57.4,58.5,46.2,38.4,81,45,22,30.06,29.97,5,0,8,0.00
2012-6-24,88.3,76.4,65.7,48.7,44.5,39.0,51,34,18,30.06,29.88,8,1,10,0.00
2012-6-25,75.0,69.3,60.1,50.9,39.1,28.8,62,36,21,30.03,29.91,8,3,13,0.00
2012-6-26,80.6,67.4,49.3,44.5,36.5,31.1,76,37,17,30.06,29.97,5,1,15,0.00
2012-6-27,88.2,73.0,55.8,46.9,39.6,33.5,67,35,15,30.03,29.88,4,0,11,0.00
2012-6-28,99.3,83.6,66.9,61.7,47.5,37.8,44,29,20,29.85,29.71,6,1,12,0.00
2012-6-29,91.2,81.2,70.3,64.0,52.3,39.2,76,41,18,29.91,29.80,4,0,11,0.00
2012-6-30,92.7,78.7,65.7,60.3,52.5,44.1,76,45,19,29.85,29.77,4,1,9,0.00
2012-7-1,93.4,77.4,63.9,61.4,52.2,42.8,72,46,19,29.97,29.85,4,0,22,0.08
2012-7-2,93.0,78.2,65.1,69.6,57.1,44.7,90,55,19,30.06,29.94,4,0,7,0.00
2012-7-3,91.4,79.3,72.1,66.0,60.2,53.3,75,54,29,29.97,29.83,8,1,11,0.00
2012-7-4,101.8,89.4,70.5,66.3,49.6,43.4,82,29,15,29.91,29.83,11,2,15,0.00
2012-7-5,93.7,79.1,70.0,63.3,58.0,51.5,76,50,27,29.97,29.85,18,1,18,0.12
2012-7-6,100.0,85.2,69.8,69.8,60.3,47.8,87,49,18,30.00,29.91,6,0,8,0.00
2012-7-7,103.3,87.1,73.4,68.5,58.7,44.0,72,45,14,30.00,29.85,13,1,13,0.24
2012-7-8,85.6,75.7,66.9,63.5,50.1,37.5,80,46,19,30.06,29.97,11,2,11,0.16
2012-7-9,83.5,72.3,60.4,64.0,53.2,44.0,87,55,26,30.09,30.00,8,1,8,0.04
2012-7-10,84.6,73.5,63.5,62.4,48.8,37.4,86,48,21,30.15,30.03,8,1,8,0.04
2012-7-11,84.7,72.9,56.7,57.3,43.3,34.0,79,40,17,30.18,30.12,9,1,11,0.04
2012-7-12,86.5,74.1,57.6,58.6,46.6,39.3,81,44,21,30.18,30.09,11,1,11,0.04
2012-7-13,91.4,78.6,64.8,65.2,52.1,42.6,86,46,19,30.15,30.06,10,1,10,0.00
2012-7-14,89.2,76.0,62.8,66.8,55.7,46.7,81,52,24,30.12,30.03,6,0,10,0.00
2012-7-15,93.9,82.3,71.8,66.7,56.3,42.5,82,47,18,30.06,29.94,11,1,11,0.00
2012-7-16,96.1,82.0,67.5,62.3,54.2,43.8,76,42,18,30.03,29.85,8,0,8,0.00
2012-7-17,100.0,86.6,72.5,59.1,51.7,43.7,60,34,16,29.88,29.80,13,1,14,0.00
2012-7-18,89.8,80.7,73.0,66.8,58.8,52.7,76,49,30,30.00,29.85,8,1,10,0.00
2012-7-19,82.6,74.2,67.3,69.2,61.4,57.3,83,65,44,30.00,29.91,10,1,10,0.08
2012-7-20,82.2,71.6,63.1,60.1,44.5,34.3,78,42,22,30.09,29.94,11,3,13,0.04
2012-7-21,88.7,73.4,54.7,56.3,45.3,38.6,84,43,19,30.12,30.03,8,1,10,0.00
2012-7-22,94.1,80.8,66.2,61.3,51.9,42.9,79,41,18,30.12,30.03,13,1,13,0.00
2012-7-23,96.1,80.8,74.7,64.0,55.8,46.6,67,45,21,30.09,29.88,12,2,17,0.00
2012-7-24,79.3,72.9,67.5,47.5,45.7,44.6,46,38,32,30.03,29.97,6,0,6,0.00
2012-7-25,91.0,75.9,55.2,64.5,47.2,37.8,73,40,19,30.03,29.71,11,1,11,0.00
2012-7-26,86.2,80.1,73.9,66.0,59.5,51.2,69,51,31,29.80,29.68,14,1,14,0.04
2012-7-27,89.2,73.1,64.9,68.2,59.9,43.6,89,67,22,29.94,29.77,8,0,9,0.71
2012-7-28,82.4,72.0,64.0,67.3,56.2,45.1,98,63,28,30.12,29.94,11,2,11,0.08
2012-7-29,85.8,79.4,67.5,51.5,44.6,40.4,56,31,21,30.15,30.06,9,1,9,0.00
2012-7-30,89.6,75.4,61.9,61.7,51.8,41.5,81,49,19,30.09,29.97,8,1,10,0.00
2012-7-31,88.7,76.8,65.1,61.5,52.9,44.9,84,47,25,30.03,29.91,14,1,14,0.00
2012-8-1,87.1,75.3,62.4,61.3,48.2,35.4,85,45,17,30.00,29.94,12,1,12,0.00
2012-8-2,91.2,75.7,58.8,59.1,47.5,37.5,81,43,16,30.00,29.91,8,0,8,0.00
2012-8-3,94.6,80.8,64.9,65.0,51.8,42.8,81,42,18,30.03,29.94,8,1,8,0.00
2012-8-4,91.8,79.4,67.6,67.7,60.2,50.8,89,55,30,30.06,29.91,8,1,8,0.04
2012-8-5,87.4,75.5,64.8,73.7,55.6,34.4,98,60,21,30.21,29.94,13,1,13,0.12
2012-8-6,83.7,69.8,53.8,56.1,42.9,35.0,85,43,22,30.27,30.12,9,0,9,0.00
2012-8-7,89.4,73.9,56.1,59.4,46.5,38.4,90,45,19,30.12,30.00,13,1,13,0.00
2012-8-8,89.8,77.0,65.5,59.0,50.4,40.0,73,43,19,30.09,30.03,8,1,9,0.00
2012-8-9,71.2,67.1,63.0,63.4,58.4,48.4,94,75,44,30.09,29.88,6,0,10,0.55
2012-8-10,68.0,63.7,60.4,66.6,60.2,48.6,100,89,53,29.91,29.80,10,1,11,0.35
2012-8-11,69.6,63.2,59.2,61.2,55.5,49.3,100,78,50,30.09,29.83,13,2,13,0.00
2012-8-12,81.5,69.5,58.8,59.4,49.7,37.5,92,55,23,30.15,30.06,9,1,10,0.00
2012-8-13,77.7,69.0,62.6,59.8,51.3,42.8,82,56,29,30.18,30.09,5,0,5,0.04
2012-8-14,76.3,67.4,61.9,64.3,54.8,43.0,97,68,33,30.12,30.03,8,0,8,0.28
2012-8-15,81.9,66.4,57.4,63.6,56.1,46.7,97,73,30,30.15,30.09,8,0,8,0.51
2012-8-16,81.1,70.4,61.7,67.6,56.8,48.8,100,67,35,30.15,29.97,11,1,11,0.28
2012-8-17,77.2,68.3,60.3,62.2,47.9,34.9,92,54,23,30.18,30.00,11,2,12,0.28
2012-8-18,75.4,64.6,50.2,51.6,36.8,29.2,80,40,19,30.21,30.15,8,0,8,0.00
2012-8-19,78.3,64.8,52.3,49.3,39.8,33.3,76,45,22,30.18,30.09,8,0,8,0.00
2012-8-20,76.3,65.4,52.9,56.9,45.8,39.0,89,53,27,30.21,30.12,8,0,8,0.00
2012-8-21,77.4,64.9,53.4,57.9,47.9,37.4,90,58,25,30.33,30.21,7,0,7,0.00
2012-8-22,82.6,68.1,53.1,62.3,44.5,32.2,93,51,17,30.39,30.09,8,0,10,0.00
2012-8-23,89.6,77.4,58.0,60.8,48.1,41.0,84,40,19,30.18,30.09,7,0,7,0.00
2012-8-24,93.4,77.0,61.0,67.2,53.8,44.0,90,52,19,30.15,30.09,8,1,8,0.00
2012-8-25,95.0,80.3,66.2,68.4,56.4,44.1,93,52,18,30.15,30.09,8,1,8,0.00
2012-8-26,79.2,73.5,68.6,66.6,63.8,57.6,86,73,48,30.12,30.00,6,0,6,0.00
2012-8-27,83.3,76.6,70.4,75.2,66.5,51.8,96,73,37,30.03,29.97,6,0,6,0.67
2012-8-28,84.4,73.7,63.7,63.6,51.0,40.2,86,50,23,30.12,30.03,13,2,14,0.67
2012-8-29,82.6,71.3,59.9,64.8,53.3,44.4,89,57,27,30.15,30.03,6,0,6,0.67
2012-8-30,88.2,72.9,58.1,64.5,50.9,42.0,92,52,22,30.12,30.00,7,1,9,0.67
2012-8-31,97.0,80.3,63.4,65.2,54.6,47.4,78,45,19,30.09,30.00,13,1,15,0.67
2012-9-1,86.0,78.3,71.1,68.6,52.8,42.1,76,44,24,30.12,30.03,6,0,7,0.67
2012-9-2,83.7,76.6,71.3,66.6,60.0,52.3,70,57,42,30.06,29.94,10,2,10,0.67
2012-9-3,90.5,79.5,69.7,72.2,60.7,54.8,82,55,33,29.97,29.91,8,1,8,0.67
2012-9-4,85.0,77.9,71.8,77.1,68.4,59.5,97,75,43,29.94,29.85,8,0,8,0.67
2012-9-5,85.0,75.7,68.2,75.6,65.5,58.2,100,73,41,29.91,29.80,6,0,7,0.04
2012-9-6,89.6,77.2,69.1,78.1,62.3,44.1,100,67,23,29.94,29.85,8,0,8,0.67
2012-9-7,85.9,73.5,61.6,65.5,55.6,42.0,91,58,24,29.94,29.74,8,0,8,0.67
2012-9-8,76.0,67.5,59.9,65.3,49.4,37.2,94,58,26,29.88,29.68,17,2,17,0.67
2012-9-9,75.1,63.4,53.6,57.3,44.3,35.2,89,54,26,30.09,29.85,10,0,10,0.67
2012-9-10,77.9,63.8,49.1,58.2,42.2,33.3,91,52,21,30.24,30.09,8,0,8,0.67
2012-9-11,83.7,68.2,52.0,55.2,44.0,38.7,85,47,22,30.24,30.15,10,1,10,0.00
2012-9-12,88.0,72.1,54.4,52.4,45.6,41.1,80,43,21,30.27,30.18,8,1,10,0.00
2012-9-13,89.5,75.9,65.2,54.8,48.1,38.1,67,41,17,30.27,30.18,11,1,11,0.00
2012-9-14,74.2,65.7,57.8,58.3,48.2,33.6,89,58,24,30.30,30.21,13,2,13,0.31
2012-9-15,76.0,62.9,49.5,52.2,41.4,34.1,86,51,23,30.33,30.18,8,0,9,0.00
2012-9-16,81.9,65.7,51.3,48.9,41.7,36.4,80,47,22,30.18,30.03,10,0,10,0.00
2012-9-17,82.6,67.8,52.4,65.9,46.8,39.1,90,52,24,30.03,29.77,8,0,8,0.08
2012-9-18,69.7,63.3,49.9,67.8,46.2,26.5,94,58,28,30.00,29.62,16,2,20,0.00
2012-9-19,71.5,57.2,40.7,44.3,31.3,27.0,81,42,22,30.12,30.00,10,1,14,0.00
2012-9-20,72.9,63.6,56.5,53.0,38.2,27.9,77,41,28,30.00,29.85,11,1,11,0.16
2012-9-21,75.1,61.3,50.2,48.5,39.6,29.9,80,50,21,29.94,29.80,14,1,14,0.04
2012-9-22,63.7,55.5,47.9,54.6,46.3,39.2,91,72,44,30.09,29.74,14,0,14,0.16
2012-9-23,63.2,53.7,45.9,51.8,39.3,28.1,93,63,28,30.21,30.06,10,1,11,0.04
2012-9-24,68.8,54.5,39.8,42.1,31.8,25.6,87,48,22,30.21,29.94,11,1,12,0.00
2012-9-25,75.2,63.1,53.5,60.3,40.6,26.9,87,46,27,29.97,29.88,8,1,9,0.00
2012-9-26,77.0,67.6,59.2,67.3,56.4,41.7,96,70,43,30.15,29.88,10,1,10,0.00
2012-9-27,70.7,60.6,52.7,43.3,37.9,32.1,67,45,26,30.21,30.15,11,1,11,0.00
2012-9-28,74.2,60.7,51.1,50.6,40.6,33.1,78,52,24,30.18,30.06,10,0,10,0.00
2012-9-29,74.5,60.4,46.4,53.2,38.9,30.9,90,51,21,30.09,29.91,10,1,10,0.00
2012-9-30,68.2,59.3,50.0,49.9,40.1,33.5,82,52,29,29.97,29.91,10,1,10,0.00
2012-10-1,69.7,56.7,43.2,55.7,39.9,33.0,90,58,27,29.94,29.85,6,0,8,0.00
2012-10-2,72.9,63.8,57.8,58.9,50.8,42.4,90,65,39,29.91,29.83,8,1,10,0.20
2012-10-3,69.5,64.9,62.3,64.6,54.4,47.5,96,70,49,30.09,29.88,8,0,8,0.00
2012-10-4,79.2,69.3,60.3,53.5,44.9,37.2,72,44,24,30.12,30.03,10,1,12,0.16
2012-10-5,70.7,60.1,47.7,50.2,41.1,33.2,81,51,38,30.09,29.97,10,1,10,0.16
2012-10-6,54.7,48.3,41.4,43.5,34.9,25.1,92,63,33,30.12,29.94,12,1,12,0.00
2012-10-7,52.4,48.1,44.3,40.9,36.0,30.5,78,63,44,30.15,30.06,10,0,10,0.00
2012-10-8,59.4,46.6,34.4,42.3,28.8,20.6,89,55,25,30.21,30.12,10,1,10,0.00
2012-10-9,66.4,52.2,41.6,37.1,30.0,24.0,78,46,26,30.12,29.94,9,2,10,0.00
2012-10-12,57.1,55.8,54.7,24.2,23.1,19.2,29,28,25,30.39,30.36,10,3,10,0.00
2012-10-15,57.1,53.6,50.9,36.0,34.1,31.7,53,48,42,29.91,29.80,14,2,15,0.00
2012-10-16,64.4,51.2,43.7,34.7,30.9,28.3,58,46,27,29.94,29.83,8,0,9,0.00
2012-10-17,78.3,71.0,62.3,54.9,42.6,34.6,77,41,23,29.68,29.56,10,2,12,0.20
2012-10-18,65.5,60.1,52.9,55.3,38.6,25.7,81,48,26,29.65,29.41,12,2,13,0.28
2012-10-19,60.8,53.5,49.3,46.9,36.4,28.4,91,54,32,29.65,29.53,12,1,12,0.08
2012-10-20,59.8,52.6,47.3,48.2,41.8,34.6,93,69,42,29.88,29.56,9,0,13,0.00
2012-10-21,65.7,53.4,45.0,50.5,38.4,32.0,95,61,29,30.06,29.88,8,0,10,0.00
2012-10-22,76.0,64.4,43.2,52.7,46.4,35.9,87,55,36,30.06,29.94,6,0,8,0.00
2012-10-23,76.3,67.3,61.7,62.5,53.9,48.4,95,64,39,30.00,29.88,8,0,8,0.08
2012-10-24,81.5,71.5,64.1,60.8,52.6,45.2,84,55,31,30.03,29.97,8,0,8,0.00
2012-10-25,82.6,72.3,60.1,48.9,44.1,38.6,66,38,23,30.00,29.88,11,2,11,0.00
2012-10-26,72.7,55.6,49.5,47.7,35.5,27.8,66,47,36,30.21,29.88,15,4,17,0.00
2012-10-27,59.6,50.3,42.5,31.6,26.7,21.0,56,41,28,30.18,30.09,14,4,15,0.00
2012-10-28,56.2,46.6,41.4,28.5,23.6,19.1,55,41,29,30.15,30.06,16,5,17,0.00
2012-10-29,47.2,45.5,43.7,25.3,22.9,19.6,43,41,33,30.06,29.77,25,9,26,0.00
2012-10-30,47.0,43.9,41.9,35.1,32.6,30.0,75,65,53,29.50,29.41,22,8,22,0.00
2012-10-31,46.6,43.3,40.1,38.1,34.9,31.7,89,73,60,29.65,29.47,13,4,15,0.04
2012-11-1,55.3,46.8,43.2,36.3,27.0,19.2,73,48,29,29.77,29.65,14,3,15,0.04
2012-11-2,47.7,42.9,36.7,27.0,22.8,19.4,56,45,33,30.03,29.74,17,2,17,0.00
2012-11-3,53.1,42.0,31.9,32.0,23.0,20.0,79,48,30,30.12,30.03,11,2,11,0.00
2012-11-4,44.1,38.0,28.8,23.8,19.4,14.4,58,47,35,30.15,30.09,8,1,8,0.04
2012-11-5,46.8,32.7,24.3,24.1,15.9,12.5,73,52,30,30.15,30.09,8,0,8,0.00
2012-11-6,46.0,33.5,25.9,27.5,19.2,15.2,78,58,31,30.09,29.91,8,1,8,0.00
2012-11-7,50.7,36.6,27.9,25.3,19.4,12.4,72,52,30,30.09,29.91,8,1,8,0.00
2012-11-8,50.9,35.0,22.5,35.1,20.6,14.6,84,59,29,30.15,30.06,6,0,8,0.00
2012-11-9,56.8,42.0,27.7,41.2,28.6,21.0,92,63,32,30.15,30.03,8,0,8,0.12
2012-11-10,65.5,55.3,46.6,43.0,38.3,33.4,85,57,33,30.09,30.00,10,1,10,0.00
2012-11-11,69.8,61.2,54.9,34.3,30.1,24.6,39,31,25,30.09,29.94,17,5,17,0.00
2012-11-12,61.7,45.4,33.1,51.9,31.6,14.2,89,61,26,30.21,29.88,17,2,23,0.51
2012-11-13,35.2,31.9,24.6,17.2,13.4,10.3,55,46,36,30.47,30.21,6,1,8,0.00
2012-11-14,42.1,30.4,20.7,25.2,15.8,10.6,77,56,35,30.50,30.36,6,0,6,0.00
2012-11-15,50.2,37.3,28.2,26.3,22.5,19.2,75,56,33,30.36,30.27,5,0,5,0.00
2012-11-16,54.0,35.3,23.4,36.3,20.6,15.8,89,59,28,30.45,30.30,0,0,0,0.00
2012-11-17,52.7,36.4,24.4,33.9,23.0,15.6,83,61,35,30.53,30.45,0,0,0,0.00
2012-11-18,54.3,40.3,30.0,44.8,29.2,20.4,98,69,28,30.47,30.36,0,0,0,0.00
2012-11-19,54.5,38.8,27.3,41.4,26.2,21.6,89,64,30,30.36,30.12,0,0,0,0.00
2012-11-20,54.5,44.7,37.6,37.7,31.6,28.0,86,62,39,30.12,30.03,3,0,3,0.00
2012-11-21,60.8,43.5,31.5,44.5,31.2,27.5,91,65,30,30.18,30.09,4,0,4,0.00
2012-11-22,62.6,48.4,31.3,46.0,34.4,29.5,100,63,35,30.12,29.80,13,2,13,0.00
2012-11-23,54.0,45.7,36.7,48.8,31.4,16.9,92,59,43,29.80,29.71,17,3,17,0.08
2012-11-24,34.0,31.9,30.0,12.5,10.1,8.7,48,40,36,30.03,29.97,3,3,3,0.08
2012-11-25,41.5,33.6,27.9,18.1,15.4,11.8,60,47,37,29.97,29.80,3,3,3,0.08
2012-11-26,40.3,32.2,25.5,26.0,16.4,11.2,78,53,37,30.21,29.94,3,3,3,0.08
2012-11-27,38.1,28.1,19.8,16.4,9.2,4.0,67,46,31,30.30,30.18,8,1,8,0.08
2012-11-28,41.9,30.9,23.0,16.0,12.4,7.5,64,47,32,30.27,30.15,10,1,14,0.08
2012-11-29,48.7,35.1,24.6,21.1,17.3,13.7,64,49,30,30.24,30.15,7,0,8,0.00
2012-11-30,46.8,39.7,34.9,31.1,23.8,19.9,78,54,37,30.18,30.06,3,1,3,0.08
2012-12-1,57.0,46.5,36.3,41.9,33.4,30.0,86,63,39,30.18,29.97,10,3,10,0.08
2012-12-2,57.0,54.2,50.4,54.8,47.3,36.1,96,79,45,30.06,29.88,6,1,8,0.00
2012-12-3,62.8,55.6,49.6,61.3,53.2,48.4,100,93,63,30.09,29.88,12,2,14,0.08
2012-12-4,62.4,51.2,37.0,50.4,42.3,28.5,91,72,62,30.06,29.88,6,2,6,0.08
2012-12-5,39.4,33.4,28.0,29.9,17.0,11.9,73,52,33,30.33,30.06,0,0,0,0.00
2012-12-6,39.7,33.5,23.0,22.5,19.2,17.0,86,57,44,30.30,29.91,0,0,0,0.08
2012-12-7,43.3,40.8,38.8,41.7,31.6,19.6,99,73,44,29.91,29.83,2,0,3,0.31
2012-12-8,42.1,38.9,34.7,42.1,35.6,25.6,100,89,68,30.09,29.77,10,1,11,0.20
2012-12-9,41.0,37.6,34.3,40.8,31.7,21.5,100,80,57,30.12,29.59,15,3,15,0.16
2012-12-10,41.5,38.3,32.5,41.5,29.5,17.8,100,72,52,29.83,29.56,10,2,13,0.00
2012-12-11,37.0,29.7,25.0,22.6,16.9,12.3,76,59,42,30.09,29.80,8,1,8,0.28
2012-12-12,42.4,31.1,24.4,20.3,18.2,15.3,78,60,37,30.30,30.09,5,0,7,0.00
2012-12-13,45.0,34.9,26.1,20.4,17.2,13.7,68,49,31,30.30,30.12,8,2,10,0.00
2012-12-14,48.0,35.3,27.5,27.4,20.9,17.6,79,57,40,30.18,30.12,5,1,5,0.00
2012-12-15,46.6,37.8,31.1,41.8,29.9,24.0,96,75,48,30.12,29.65,9,2,10,0.28
2012-12-16,54.1,49.7,43.5,52.0,43.5,31.6,100,80,60,29.65,29.56,8,1,10,0.20
2012-12-17,43.5,41.0,38.7,33.7,29.8,26.5,76,64,54,29.71,29.59,8,0,8,0.28
2012-12-18,41.7,37.3,32.9,32.6,27.1,19.5,89,68,42,29.74,29.59,8,1,9,0.04
2012-12-19,41.7,37.8,35.2,35.5,29.8,24.5,92,74,53,30.06,29.68,6,0,6,0.00
2012-12-20,48.6,40.4,34.3,48.0,34.6,23.8,100,80,58,30.03,29.15,15,4,15,0.75
2012-12-21,34.3,33.0,31.3,32.4,23.1,14.5,94,68,46,29.83,29.15,26,3,28,0.28
2012-12-22,37.6,31.2,25.0,20.6,15.4,11.2,73,52,39,30.03,29.83,17,3,21,0.00
2012-12-23,37.9,26.9,19.8,18.7,15.5,12.9,83,63,41,29.97,29.83,9,1,9,0.00
2012-12-24,34.9,28.4,20.7,26.0,19.1,12.1,81,68,54,29.94,29.74,8,2,10,0.28
2012-12-25,33.8,29.1,21.6,22.2,17.4,13.5,83,62,49,30.21,29.91,8,2,9,0.28
2012-12-26,31.1,28.8,25.7,25.2,19.0,13.8,83,68,50,30.18,29.74,16,6,16,0.00
2012-12-27,37.4,26.8,13.6,24.2,16.0,6.7,85,65,41,30.12,29.80,13,3,13,0.28
2012-12-28,34.3,21.3,9.1,21.5,12.4,2.4,81,69,45,30.09,29.85,5,0,5,0.00
2012-12-29,34.3,28.1,20.1,26.4,21.3,13.9,92,76,56,30.00,29.71,8,0,8,0.28
2012-12-30,30.0,22.8,17.2,26.6,13.9,6.8,95,69,51,30.24,30.00,6,1,8,0.28
2012-12-31,36.7,29.1,18.5,27.0,17.4,9.9,80,62,43,30.15,29.88,10,2,10,0.00
2013-1-1,32.9,22.5,10.9,13.1,4.6,-4.6,56,46,32,30.09,29.94,11,2,11,0.00